Time;durP1;ratioP1;P1;durP2;ratioP2;P2;SDS_P1;SDS_P2;PMS_P1;PMS_P2;Temp;Humidity;BMP_temperature;BMP_pressure;BME280_temperature;BME280_humidity;BME280_pressure;Samples;Min_cycle;Max_cycle;Signal;HPM_P1;HPM_P2
2021/12/05 00:23:40;;;;;;;22.50;11.93;;;1.10;99.90;;;;;;5033193;28;20536;-53
2021/12/05 00:26:10;;;;;;;20.17;10.50;;;1.20;99.90;;;;;;5032117;28;20437;-52
2021/12/05 00:28:58;;;;;;;21.23;11.37;;;1.30;99.90;;;;;;5032854;28;20874;-52
2021/12/05 00:31:50;;;;;;;23.47;11.80;;;1.20;99.90;;;;;;5033094;28;20448;-52
2021/12/05 00:40:10;;;;;;;18.03;10.60;;;1.20;99.90;;;;;;5013202;28;20788;-52
2021/12/05 00:53:57;;;;;;;19.43;11.73;;;1.30;99.90;;;;;;5032761;28;20499;-52
2021/12/05 01:01:15;;;;;;;18.20;9.83;;;1.30;99.90;;;;;;5032704;28;20178;-53
2021/12/05 01:06:50;;;;;;;18.93;9.80;;;1.30;99.90;;;;;;5032893;28;20507;-52
2021/12/05 01:16:50;;;;;;;19.40;10.87;;;1.40;99.90;;;;;;5032430;28;20509;-53
2021/12/05 01:19:20;;;;;;;17.10;10.50;;;1.40;99.90;;;;;;5032154;28;21176;-53
2021/12/05 01:21:48;;;;;;;19.30;10.20;;;1.50;99.90;;;;;;5031975;28;20937;-53
2021/12/05 01:24:30;;;;;;;15.90;9.80;;;1.50;99.90;;;;;;5031731;28;20430;-53
2021/12/05 01:27:11;;;;;;;14.43;8.77;;;1.50;99.90;;;;;;5031691;28;20926;-53
2021/12/05 01:29:48;;;;;;;18.27;9.93;;;1.50;99.90;;;;;;5032070;28;20425;-52
2021/12/05 01:33:03;;;;;;;15.63;9.13;;;1.40;99.90;;;;;;5031706;28;20438;-52
2021/12/05 01:35:15;;;;;;;17.43;10.17;;;1.40;99.90;;;;;;5028593;28;20529;-53
2021/12/05 01:37:58;;;;;;;14.50;8.90;;;1.40;99.90;;;;;;5031445;28;20844;-53
2021/12/05 01:46:10;;;;;;;16.40;9.50;;;1.50;99.90;;;;;;5031549;28;20544;-53
2021/12/05 01:49:07;;;;;;;17.77;9.80;;;1.50;99.90;;;;;;5031610;28;20437;-53
2021/12/05 02:15:40;;;;;;;18.53;9.90;;;1.50;99.90;;;;;;5031250;28;20471;-54
2021/12/05 02:32:22;;;;;;;21.03;11.40;;;1.60;99.90;;;;;;5030710;28;20430;-53
2021/12/05 02:43:39;;;;;;;20.50;11.40;;;1.70;99.90;;;;;;5031050;28;20551;-54
2021/12/05 02:46:06;;;;;;;20.53;11.67;;;1.70;99.90;;;;;;5031098;28;20460;-53
2021/12/05 02:48:35;;;;;;;22.60;11.87;;;1.70;99.90;;;;;;5030609;28;20799;-53
2021/12/05 02:51:32;;;;;;;20.30;11.50;;;1.70;99.90;;;;;;5033957;28;21018;-53
2021/12/05 02:56:29;;;;;;;21.57;12.10;;;1.60;99.90;;;;;;5034743;28;20433;-53
2021/12/05 02:58:59;;;;;;;23.90;13.10;;;1.70;99.90;;;;;;5034887;28;20417;-53
2021/12/05 03:03:56;;;;;;;25.80;12.90;;;1.60;99.90;;;;;;5034842;28;20433;-54
2021/12/05 03:06:28;;;;;;;25.00;13.37;;;1.70;99.90;;;;;;5034735;28;21215;-54
2021/12/05 03:08:58;;;;;;;24.47;13.00;;;1.60;99.90;;;;;;5034567;28;20935;-54
2021/12/05 03:11:26;;;;;;;28.27;14.80;;;1.60;99.90;;;;;;5034282;28;20528;-53
2021/12/05 03:13:52;;;;;;;29.43;14.80;;;1.60;99.90;;;;;;5034374;28;20476;-54
2021/12/05 03:16:19;;;;;;;27.33;13.90;;;1.70;99.90;;;;;;5034386;28;20433;-54
2021/12/05 03:18:45;;;;;;;26.23;13.47;;;1.60;99.90;;;;;;5034435;28;20207;-51
2021/12/05 03:21:11;;;;;;;25.70;13.13;;;1.70;99.90;;;;;;5033958;28;20470;-54
2021/12/05 03:23:39;;;;;;;30.90;16.00;;;1.70;99.90;;;;;;5033993;28;20199;-54
2021/12/05 03:26:07;;;;;;;32.07;14.80;;;1.70;99.90;;;;;;5033909;28;20773;-54
2021/12/05 03:28:34;;;;;;;31.43;15.33;;;1.70;99.90;;;;;;5014452;28;20426;-54
2021/12/05 03:31:00;;;;;;;28.53;14.50;;;1.70;99.90;;;;;;5022725;28;20926;-54
2021/12/05 03:33:26;;;;;;;31.30;14.00;;;1.60;99.90;;;;;;5033854;28;20434;-54
2021/12/05 03:35:52;;;;;;;27.83;15.30;;;1.70;99.90;;;;;;5033998;28;20811;-54
2021/12/05 03:38:18;;;;;;;26.20;13.37;;;1.60;99.90;;;;;;5034034;28;20186;-54
2021/12/05 03:40:44;;;;;;;33.03;14.77;;;1.60;99.90;;;;;;5033718;28;20425;-54
2021/12/05 03:43:13;;;;;;;29.67;13.70;;;1.60;99.90;;;;;;5033833;28;20191;-54
2021/12/05 03:45:43;;;;;;;37.07;15.10;;;1.60;99.90;;;;;;5033997;28;20429;-54
2021/12/05 03:48:11;;;;;;;33.53;15.90;;;1.50;99.90;;;;;;5033674;28;20433;-54
2021/12/05 03:50:37;;;;;;;28.30;13.00;;;1.50;99.90;;;;;;5032905;28;20476;-54
2021/12/05 03:53:06;;;;;;;28.27;14.67;;;1.60;99.90;;;;;;5014017;28;20476;-53
2021/12/05 03:55:32;;;;;;;28.10;14.47;;;1.50;99.90;;;;;;5032852;28;20559;-53
2021/12/05 03:57:58;;;;;;;28.57;13.33;;;1.60;99.90;;;;;;5033731;28;20822;-54
2021/12/05 04:00:30;;;;;;;35.03;14.97;;;1.60;99.90;;;;;;5033118;28;20434;-53
2021/12/05 04:02:59;;;;;;;29.80;14.00;;;1.60;99.90;;;;;;5033304;28;20711;-53
2021/12/05 04:05:27;;;;;;;32.80;14.67;;;1.60;99.90;;;;;;5032177;28;20425;-54
2021/12/05 04:07:53;;;;;;;30.77;14.80;;;1.60;99.90;;;;;;5033403;28;20461;-54
2021/12/05 04:10:20;;;;;;;34.20;14.80;;;1.60;99.90;;;;;;5033305;28;20428;-53
2021/12/05 04:12:45;;;;;;;31.73;14.70;;;1.60;99.90;;;;;;5033436;28;20422;-54
2021/12/05 04:15:12;;;;;;;30.13;14.43;;;1.60;99.90;;;;;;5033631;28;20473;-53
2021/12/05 04:17:41;;;;;;;40.57;15.53;;;1.50;99.90;;;;;;5032844;28;20529;-53
2021/12/05 04:20:10;;;;;;;35.27;15.90;;;1.60;99.90;;;;;;5033233;28;20425;-54
2021/12/05 04:22:35;;;;;;;38.20;15.13;;;1.60;99.90;;;;;;5032910;28;20417;-54
2021/12/05 04:25:05;;;;;;;45.73;16.73;;;1.60;99.90;;;;;;5033311;28;20417;-54
2021/12/05 04:27:30;;;;;;;31.93;15.00;;;1.60;99.90;;;;;;5033347;28;20214;-53
2021/12/05 04:29:56;;;;;;;39.13;15.90;;;1.70;99.90;;;;;;5032910;28;20437;-54
2021/12/05 04:32:22;;;;;;;38.77;14.93;;;1.70;99.90;;;;;;5032863;28;20202;-54
2021/12/05 04:34:47;;;;;;;36.10;14.73;;;1.70;99.90;;;;;;5032853;28;20265;-54
2021/12/05 04:37:13;;;;;;;41.50;16.67;;;1.70;99.90;;;;;;5032998;28;20708;-53
2021/12/05 04:39:38;;;;;;;42.67;16.30;;;1.60;99.90;;;;;;5032933;28;20179;-54
2021/12/05 04:42:04;;;;;;;41.13;16.10;;;1.70;99.90;;;;;;5032628;28;20183;-54
2021/12/05 04:44:30;;;;;;;42.43;16.03;;;1.70;99.90;;;;;;5032972;28;20190;-54
2021/12/05 04:46:57;;;;;;;48.33;16.87;;;1.60;99.90;;;;;;5032688;28;20275;-54
2021/12/05 04:49:23;;;;;;;34.47;15.33;;;1.60;99.90;;;;;;5032223;28;20808;-54
2021/12/05 04:51:49;;;;;;;34.30;15.67;;;1.60;99.90;;;;;;5032234;28;20477;-54
2021/12/05 04:54:18;;;;;;;37.33;16.77;;;1.60;99.90;;;;;;5032527;28;20469;-53
2021/12/05 04:56:48;;;;;;;40.10;16.27;;;1.70;99.90;;;;;;5032626;28;20421;-53
2021/12/05 04:59:15;;;;;;;45.10;16.80;;;1.70;99.90;;;;;;5032487;28;20433;-54
2021/12/05 05:01:50;;;;;;;40.90;16.97;;;1.60;99.90;;;;;;5032271;28;20434;-54
2021/12/05 05:04:26;;;;;;;46.67;16.27;;;1.60;99.90;;;;;;5032372;28;20487;-54
2021/12/05 05:06:53;;;;;;;40.40;16.33;;;1.70;99.90;;;;;;5032171;28;20521;-53
2021/12/05 05:09:19;;;;;;;50.50;17.37;;;1.60;99.90;;;;;;5032324;28;20418;-53
2021/12/05 05:11:45;;;;;;;46.50;16.77;;;1.60;99.90;;;;;;5029877;28;20484;-54
2021/12/05 05:14:13;;;;;;;46.47;17.33;;;1.60;99.90;;;;;;5032224;28;21018;-54
2021/12/05 05:16:39;;;;;;;44.07;16.43;;;1.60;99.90;;;;;;5032091;28;20175;-54
2021/12/05 05:19:04;;;;;;;44.60;16.97;;;1.60;99.90;;;;;;5031942;28;20479;-54
2021/12/05 05:24:32;;;;;;;40.90;17.53;;;1.70;99.90;;;;;;5032215;28;20190;-54
2021/12/05 05:27:36;;;;;;;40.70;17.80;;;1.70;99.90;;;;;;5031975;28;20221;-54
2021/12/05 05:43:41;;;;;;;40.83;17.07;;;1.70;99.90;;;;;;5031764;28;20463;-54
2021/12/05 05:46:16;;;;;;;42.53;16.83;;;1.70;99.90;;;;;;5031103;28;20433;-54
2021/12/05 05:48:48;;;;;;;34.97;14.83;;;1.70;99.90;;;;;;5031692;28;20405;-54
2021/12/05 05:51:14;;;;;;;39.17;15.77;;;1.60;99.90;;;;;;5031421;28;20967;-54
2021/12/05 05:53:40;;;;;;;38.03;15.97;;;1.70;99.90;;;;;;5031767;28;20414;-54
2021/12/05 05:56:12;;;;;;;37.03;15.63;;;1.60;99.90;;;;;;5031625;28;21080;-54
2021/12/05 06:01:06;;;;;;;32.17;14.33;;;1.60;99.90;;;;;;5041780;28;20468;-55
2021/12/05 06:03:32;;;;;;;43.40;16.57;;;1.70;99.90;;;;;;5049948;28;20179;-54
2021/12/05 06:06:05;;;;;;;35.60;16.70;;;1.60;99.90;;;;;;5051233;28;20423;-54
2021/12/05 06:08:34;;;;;;;35.37;15.80;;;1.60;99.90;;;;;;5051139;28;20990;-54
2021/12/05 06:11:04;;;;;;;37.60;15.87;;;1.60;99.90;;;;;;5033194;28;20996;-54
2021/12/05 06:13:30;;;;;;;32.27;15.20;;;1.60;99.90;;;;;;5031138;28;20770;-51
2021/12/05 06:15:57;;;;;;;38.97;16.60;;;1.60;99.90;;;;;;5030995;28;20467;-55
2021/12/05 06:18:22;;;;;;;35.53;16.60;;;1.60;99.90;;;;;;5031173;28;20911;-54
2021/12/05 06:20:52;;;;;;;38.30;16.33;;;1.50;99.90;;;;;;5029461;28;20429;-54
2021/12/05 06:23:18;;;;;;;34.70;15.40;;;1.50;99.90;;;;;;5030480;28;20191;-54
2021/12/05 06:25:46;;;;;;;34.13;15.40;;;1.50;99.90;;;;;;5030511;28;20441;-54
2021/12/05 06:28:14;;;;;;;34.00;14.27;;;1.50;99.90;;;;;;5030688;28;20237;-54
2021/12/05 06:30:51;;;;;;;32.53;14.53;;;1.50;99.90;;;;;;5030469;28;20421;-54
2021/12/05 06:46:25;;;;;;;31.63;14.50;;;1.50;99.90;;;;;;5030249;28;20875;-53
2021/12/05 06:48:51;;;;;;;30.37;15.67;;;1.60;99.90;;;;;;5031102;28;20401;-54
2021/12/05 06:51:20;;;;;;;33.93;16.50;;;1.60;99.90;;;;;;5030613;28;20484;-54
2021/12/05 06:53:47;;;;;;;31.03;13.23;;;1.50;99.90;;;;;;5030686;28;20414;-54
2021/12/05 06:56:14;;;;;;;29.13;14.30;;;1.60;99.90;;;;;;5030653;28;20790;-54
2021/12/05 06:58:40;;;;;;;29.87;14.43;;;1.60;99.90;;;;;;5030572;28;20414;-54
2021/12/05 07:01:09;;;;;;;33.63;14.23;;;1.50;99.90;;;;;;5030040;28;20434;-54
2021/12/05 07:03:37;;;;;;;30.17;14.37;;;1.50;99.90;;;;;;5030160;28;20475;-54
2021/12/05 07:06:07;;;;;;;32.00;15.03;;;1.50;99.90;;;;;;5029495;28;20441;-54
2021/12/05 07:08:36;;;;;;;30.50;14.47;;;1.50;99.90;;;;;;5030696;28;20500;-54
2021/12/05 07:23:47;;;;;;;37.00;15.00;;;1.50;99.90;;;;;;5030236;28;20430;-54
2021/12/05 07:40:24;;;;;;;32.10;14.60;;;1.50;99.90;;;;;;5027735;28;20938;-54
2021/12/05 07:40:29;;;;;;;28.30;14.03;;;1.60;99.90;;;;;;5033844;28;20428;-54
2021/12/05 07:43:04;;;;;;;30.47;15.17;;;1.50;99.90;;;;;;5033400;28;20451;-54
2021/12/05 07:45:40;;;;;;;25.77;13.77;;;1.50;99.90;;;;;;5033804;28;20417;-54
2021/12/05 07:48:13;;;;;;;30.23;14.40;;;1.60;99.90;;;;;;5034359;28;20505;-55
2021/12/05 07:50:50;;;;;;;34.43;14.70;;;1.50;99.90;;;;;;5033237;28;20878;-54
2021/12/05 07:53:24;;;;;;;27.03;13.70;;;1.60;99.90;;;;;;5033889;28;20429;-54
2021/12/05 07:55:53;;;;;;;32.40;14.87;;;1.60;99.90;;;;;;5033029;28;20500;-54
2021/12/05 07:58:51;;;;;;;32.40;15.80;;;1.60;99.90;;;;;;5033413;28;20885;-54
2021/12/05 08:14:21;;;;;;;28.30;14.37;;;1.60;99.90;;;;;;5033417;28;20895;-54
2021/12/05 08:15:13;;;;;;;33.83;15.37;;;1.70;99.90;;;;;;5032913;28;20859;-54
2021/12/05 08:17:39;;;;;;;30.77;15.70;;;1.60;99.90;;;;;;5032889;28;20417;-54
2021/12/05 08:20:07;;;;;;;28.13;14.50;;;1.70;99.90;;;;;;5033030;28;20844;-54
2021/12/05 08:22:33;;;;;;;27.03;14.20;;;1.60;99.90;;;;;;5032566;28;20433;-54
2021/12/05 08:25:08;;;;;;;30.73;14.90;;;1.60;99.90;;;;;;5032639;28;20456;-54
2021/12/05 08:27:34;;;;;;;28.63;14.53;;;1.60;99.90;;;;;;5032540;28;20336;-54
2021/12/05 08:30:07;;;;;;;28.77;14.70;;;1.60;99.90;;;;;;5030708;28;20949;-54
2021/12/05 08:32:52;;;;;;;29.20;15.27;;;1.60;99.90;;;;;;5032393;28;20187;-54
2021/12/05 08:35:42;;;;;;;31.03;15.53;;;1.60;99.90;;;;;;5032845;28;20472;-54
2021/12/05 08:39:02;;;;;;;33.17;15.13;;;1.60;99.90;;;;;;5032331;28;20429;-54
2021/12/05 09:08:25;;;;;;;28.60;14.70;;;1.70;99.90;;;;;;5031967;28;20956;-54
2021/12/05 09:51:39;;;;;;;28.67;13.97;;;1.60;99.90;;;;;;5030908;28;20519;-53
2021/12/05 10:10:55;;;;;;;30.33;14.77;;;1.40;99.90;;;;;;5017781;28;20434;-53
2021/12/05 10:13:31;;;;;;;24.30;13.13;;;1.40;99.90;;;;;;5017794;28;20191;-53
2021/12/05 10:38:00;;;;;;;30.30;13.73;;;1.50;99.90;;;;;;5030077;28;20429;-54
2021/12/05 10:40:36;;;;;;;25.10;14.33;;;1.50;99.90;;;;;;5029761;28;20917;-55
2021/12/05 10:43:09;;;;;;;28.60;15.43;;;1.60;99.90;;;;;;5030423;28;20797;-54
2021/12/05 10:45:41;;;;;;;26.87;15.03;;;1.60;99.90;;;;;;5030044;28;20521;-54
2021/12/05 10:48:10;;;;;;;29.13;15.07;;;1.60;99.90;;;;;;5030086;28;20408;-54
2021/12/05 10:50:41;;;;;;;28.53;14.80;;;1.60;99.90;;;;;;5029708;28;20515;-54
2021/12/05 10:53:29;;;;;;;35.13;15.40;;;1.50;99.90;;;;;;5029343;28;20438;-52
2021/12/05 10:56:22;;;;;;;29.37;15.43;;;1.60;99.90;;;;;;5029930;28;20876;-53
2021/12/05 10:58:58;;;;;;;28.73;15.10;;;1.60;99.90;;;;;;5030052;28;20417;-54
2021/12/05 11:01:45;;;;;;;32.53;14.93;;;1.60;99.90;;;;;;5029334;28;20425;-54
2021/12/05 11:04:14;;;;;;;29.50;15.30;;;1.70;99.90;;;;;;5029673;28;20432;-53
2021/12/05 11:06:54;;;;;;;26.63;14.77;;;1.70;99.90;;;;;;5030196;28;20421;-54
2021/12/05 11:09:29;;;;;;;35.50;16.73;;;1.70;99.90;;;;;;5030120;28;20464;-53
2021/12/05 11:12:14;;;;;;;30.47;15.90;;;1.80;99.90;;;;;;5032984;28;20778;-53
2021/12/05 11:14:47;;;;;;;31.83;15.30;;;1.80;99.90;;;;;;5033412;28;20819;-53
2021/12/05 11:17:16;;;;;;;34.20;15.90;;;1.90;99.90;;;;;;5033155;28;20472;-55
2021/12/05 11:20:28;;;;;;;28.47;15.03;;;1.90;99.90;;;;;;5032323;28;20499;-53
2021/12/05 11:22:54;;;;;;;31.27;15.43;;;2.00;99.90;;;;;;5031942;28;20440;-53
2021/12/05 11:25:27;;;;;;;28.70;15.80;;;2.00;99.90;;;;;;5032919;28;20422;-53
2021/12/05 11:28:02;;;;;;;31.03;16.40;;;2.00;99.90;;;;;;5034181;28;20183;-52
2021/12/05 11:30:31;;;;;;;31.80;17.13;;;2.10;99.90;;;;;;5034053;28;20764;-53
2021/12/05 11:33:02;;;;;;;33.43;17.10;;;2.10;99.90;;;;;;5032416;28;20472;-53
2021/12/05 11:35:37;;;;;;;34.10;17.37;;;2.10;99.90;;;;;;5034123;28;20563;-54
2021/12/05 11:38:30;;;;;;;32.80;17.20;;;2.10;99.90;;;;;;5033634;28;20432;-53
2021/12/05 11:41:03;;;;;;;31.30;16.30;;;2.20;99.90;;;;;;5034068;28;20414;-53
2021/12/05 11:43:45;;;;;;;36.20;16.70;;;2.20;99.90;;;;;;5033093;28;20946;-53
2021/12/05 11:46:20;;;;;;;33.97;17.43;;;2.20;99.90;;;;;;5033146;28;20467;-51
2021/12/05 11:48:50;;;;;;;30.43;16.30;;;2.20;99.90;;;;;;5021913;28;20437;-53
2021/12/05 11:51:29;;;;;;;35.03;17.90;;;2.20;99.90;;;;;;5031929;28;20473;-55
2021/12/05 11:54:27;;;;;;;38.07;18.20;;;2.20;99.90;;;;;;5034905;28;20436;-54
2021/12/05 18:53:36;;;;;;;48.77;21.97;;;1.50;99.90;;;;;;5341179;22;21568;-51
2021/12/05 18:56:02;;;;;;;51.23;24.30;;;1.50;99.90;;;;;;5046475;28;20483;-51
2021/12/05 18:58:28;;;;;;;53.90;25.73;;;1.50;99.90;;;;;;5049697;28;20436;-50
2021/12/05 19:06:37;;;;;;;53.90;23.87;;;1.50;99.90;;;;;;5049396;28;20420;-51
2021/12/05 19:09:21;;;;;;;57.53;25.17;;;1.50;99.90;;;;;;5049241;28;20432;-51
2021/12/05 19:11:52;;;;;;;53.87;24.37;;;1.50;99.90;;;;;;5049562;28;20712;-51
2021/12/05 19:14:34;;;;;;;51.30;24.40;;;1.50;99.90;;;;;;5049185;28;20452;-51
2021/12/05 19:17:06;;;;;;;59.10;30.33;;;1.60;99.90;;;;;;5048291;28;20421;-50
2021/12/05 19:19:33;;;;;;;52.73;24.07;;;1.50;99.90;;;;;;5049097;28;20413;-52
2021/12/05 19:22:00;;;;;;;55.10;23.23;;;1.60;99.90;;;;;;5049443;28;20430;-52
2021/12/05 19:24:28;;;;;;;53.83;23.00;;;1.60;99.90;;;;;;5047974;28;20582;-52
2021/12/05 19:26:55;;;;;;;48.77;23.37;;;1.60;99.90;;;;;;5049049;28;20523;-51
2021/12/05 19:29:22;;;;;;;59.13;23.40;;;1.60;99.90;;;;;;5049132;28;20452;-52
2021/12/05 19:31:49;;;;;;;47.77;21.20;;;1.60;99.90;;;;;;5049823;28;20429;-51
2021/12/05 19:34:15;;;;;;;52.60;24.23;;;1.50;99.90;;;;;;5052165;28;20799;-51
2021/12/05 19:36:41;;;;;;;52.67;24.20;;;1.50;99.90;;;;;;5052895;28;20425;-51
2021/12/05 19:39:08;;;;;;;51.00;25.10;;;1.50;99.90;;;;;;5052955;28;20432;-53
2021/12/05 19:41:35;;;;;;;49.60;24.63;;;1.50;99.90;;;;;;5053428;28;20797;-50
2021/12/05 19:44:01;;;;;;;55.90;23.27;;;1.50;99.90;;;;;;5053165;28;20819;-51
2021/12/05 19:46:29;;;;;;;52.30;23.47;;;1.50;99.90;;;;;;5053070;28;20421;-54
2021/12/05 19:48:54;;;;;;;47.37;21.63;;;1.50;99.90;;;;;;5052279;28;20432;-51
2021/12/05 19:51:21;;;;;;;54.97;24.90;;;1.50;99.90;;;;;;5048351;28;20435;-51
2021/12/05 19:53:48;;;;;;;47.70;22.10;;;1.50;99.90;;;;;;5047100;28;20680;-51
2021/12/05 19:56:16;;;;;;;52.03;23.97;;;1.60;99.90;;;;;;5032976;28;20587;-51
2021/12/05 19:58:42;;;;;;;52.57;23.43;;;1.50;99.90;;;;;;5033002;28;20448;-51
2021/12/05 20:01:09;;;;;;;51.90;23.87;;;1.50;99.90;;;;;;5031196;28;20429;-54
2021/12/05 20:03:36;;;;;;;51.53;22.57;;;1.40;99.90;;;;;;5030670;28;20426;-51
2021/12/05 20:06:03;;;;;;;50.40;24.27;;;1.40;99.90;;;;;;5033036;28;20441;-50
2021/12/05 20:08:33;;;;;;;46.03;21.67;;;1.50;99.90;;;;;;5032855;28;20465;-51
2021/12/05 20:10:59;;;;;;;56.27;23.53;;;1.40;99.90;;;;;;5032691;28;20778;-51
2021/12/05 20:13:26;;;;;;;57.30;24.43;;;1.40;99.90;;;;;;5032765;28;20442;-51
2021/12/05 20:15:52;;;;;;;52.90;24.23;;;1.40;99.90;;;;;;5031925;28;20467;-51
2021/12/05 20:18:18;;;;;;;50.13;22.90;;;1.40;99.90;;;;;;5032078;28;20421;-51
2021/12/05 20:20:45;;;;;;;51.23;22.60;;;1.40;99.90;;;;;;5031829;28;20286;-52
2021/12/05 20:23:14;;;;;;;55.40;25.53;;;1.40;99.90;;;;;;5032702;28;20183;-50
2021/12/05 20:25:41;;;;;;;55.63;26.77;;;1.40;99.90;;;;;;5030917;28;20451;-50
2021/12/05 20:28:07;;;;;;;56.70;26.50;;;1.40;99.90;;;;;;5031083;28;20433;-51
2021/12/05 20:30:35;;;;;;;72.93;28.43;;;1.50;99.90;;;;;;5031789;28;20441;-50
2021/12/05 20:33:04;;;;;;;67.83;30.87;;;1.40;99.90;;;;;;5032530;28;20434;-51
2021/12/05 20:35:30;;;;;;;67.17;30.43;;;1.40;99.90;;;;;;5030707;28;20940;-50
2021/12/05 20:37:59;;;;;;;53.43;25.67;;;1.50;99.90;;;;;;5032057;28;20457;-51
2021/12/05 20:40:31;;;;;;;53.87;25.43;;;1.40;99.90;;;;;;5032172;28;20516;-51
2021/12/05 20:42:57;;;;;;;53.60;24.07;;;1.50;99.90;;;;;;5030383;28;20926;-51
2021/12/05 20:45:25;;;;;;;51.27;24.53;;;1.50;99.90;;;;;;5031767;28;20448;-51
2021/12/05 20:47:51;;;;;;;57.03;26.60;;;1.40;99.90;;;;;;5031691;28;20433;-51
2021/12/05 20:50:17;;;;;;;52.43;24.67;;;1.50;99.90;;;;;;5030738;28;20529;-50
2021/12/05 20:52:45;;;;;;;56.90;27.00;;;1.50;99.90;;;;;;5032073;28;20536;-51
2021/12/05 20:55:11;;;;;;;56.53;24.53;;;1.40;99.90;;;;;;5031397;28;20830;-50
2021/12/05 20:57:37;;;;;;;66.63;31.33;;;1.40;99.90;;;;;;5031760;28;20981;-51
2021/12/05 21:00:11;;;;;;;52.60;23.17;;;1.50;99.90;;;;;;5026996;28;20517;-52
2021/12/05 21:02:38;;;;;;;48.57;22.70;;;1.50;99.90;;;;;;5031164;28;20438;-50
2021/12/05 21:05:10;;;;;;;51.53;22.20;;;1.50;99.90;;;;;;5031824;28;20458;-51
2021/12/05 21:07:39;;;;;;;56.47;25.93;;;1.50;99.90;;;;;;5030833;28;20432;-51
2021/12/05 21:10:05;;;;;;;58.07;25.73;;;1.50;99.90;;;;;;5030930;28;20829;-51
2021/12/05 21:12:32;;;;;;;64.33;28.83;;;1.50;99.90;;;;;;5031165;28;20433;-51
2021/12/05 21:14:58;;;;;;;55.60;25.67;;;1.50;99.90;;;;;;5031171;28;21051;-50
2021/12/05 21:17:23;;;;;;;60.00;24.57;;;1.50;99.90;;;;;;5031027;28;20434;-51
2021/12/05 21:19:49;;;;;;;56.57;24.97;;;1.50;99.90;;;;;;5031682;28;20296;-51
2021/12/05 21:22:19;;;;;;;51.90;22.10;;;1.50;99.90;;;;;;5031303;28;20516;-51
2021/12/05 21:24:45;;;;;;;55.17;23.97;;;1.60;99.90;;;;;;5031311;28;21188;-50
2021/12/05 21:27:12;;;;;;;51.17;23.47;;;1.50;99.90;;;;;;5030593;28;20444;-50
2021/12/05 21:29:37;;;;;;;50.67;23.20;;;1.50;99.90;;;;;;5030917;28;20194;-51
2021/12/05 21:32:03;;;;;;;54.77;24.97;;;1.50;99.90;;;;;;5030812;28;20438;-50
2021/12/05 21:34:29;;;;;;;57.43;23.73;;;1.50;99.90;;;;;;5030657;28;20266;-51
2021/12/05 21:36:54;;;;;;;57.20;24.83;;;1.50;99.90;;;;;;5030577;28;20193;-50
2021/12/05 21:39:20;;;;;;;55.00;25.70;;;1.50;99.90;;;;;;5030462;28;20190;-50
2021/12/05 21:41:45;;;;;;;57.90;25.63;;;1.50;99.90;;;;;;5030902;28;20205;-50
2021/12/05 21:44:11;;;;;;;54.97;24.40;;;1.50;99.90;;;;;;5031079;28;20206;-50
2021/12/05 21:46:37;;;;;;;60.97;25.40;;;1.50;99.90;;;;;;5030739;28;20230;-50
2021/12/05 21:49:04;;;;;;;59.43;26.40;;;1.60;99.90;;;;;;5030905;28;20191;-51
2021/12/05 21:51:30;;;;;;;61.77;25.70;;;1.60;99.90;;;;;;5030848;28;20632;-51
2021/12/05 21:53:56;;;;;;;58.77;25.47;;;1.50;99.90;;;;;;5030289;28;20865;-51
2021/12/05 21:56:24;;;;;;;63.47;27.50;;;1.50;99.90;;;;;;5030536;28;20469;-50
2021/12/05 21:58:52;;;;;;;55.37;24.80;;;1.60;99.90;;;;;;5027735;28;20652;-50
2021/12/05 22:01:19;;;;;;;55.53;24.53;;;1.60;99.90;;;;;;5029870;28;20428;-51
2021/12/05 22:03:46;;;;;;;62.60;26.20;;;1.60;99.90;;;;;;5029683;28;20436;-51
2021/12/05 22:06:13;;;;;;;61.40;26.47;;;1.60;99.90;;;;;;5030893;28;20524;-51
2021/12/05 22:08:40;;;;;;;52.57;23.80;;;1.60;99.90;;;;;;5030080;28;20516;-51
2021/12/05 22:11:06;;;;;;;54.60;25.33;;;1.50;99.90;;;;;;5030552;28;20432;-52
2021/12/05 22:13:32;;;;;;;57.37;26.80;;;1.50;99.90;;;;;;5030133;28;20465;-52
2021/12/05 22:15:59;;;;;;;62.27;26.53;;;1.50;99.90;;;;;;5030220;28;20524;-53
2021/12/05 22:18:25;;;;;;;59.20;26.53;;;1.50;99.90;;;;;;5030433;28;20710;-52
2021/12/05 22:21:06;;;;;;;60.37;26.40;;;1.50;99.90;;;;;;5030494;28;20982;-53
2021/12/05 22:23:36;;;;;;;64.97;26.67;;;1.50;99.90;;;;;;5030630;28;20437;-53
2021/12/05 22:26:03;;;;;;;67.93;28.80;;;1.50;99.90;;;;;;5030298;28;20492;-53
2021/12/05 22:28:29;;;;;;;69.33;29.90;;;1.50;99.90;;;;;;5029763;28;20430;-53
2021/12/05 22:30:54;;;;;;;64.43;28.00;;;1.50;99.90;;;;;;5030225;28;20543;-52
2021/12/05 22:33:20;;;;;;;56.30;27.67;;;1.60;99.90;;;;;;5030230;28;20426;-52
2021/12/05 22:35:46;;;;;;;60.47;30.10;;;1.70;99.90;;;;;;5029907;28;20265;-53
2021/12/05 22:38:12;;;;;;;64.10;28.20;;;1.60;99.90;;;;;;5030374;28;20606;-58
2021/12/05 22:40:38;;;;;;;64.67;29.07;;;1.60;99.90;;;;;;5029757;28;20441;-52
2021/12/05 22:43:04;;;;;;;68.20;28.97;;;1.70;99.90;;;;;;5030095;28;20568;-52
2021/12/05 22:45:30;;;;;;;64.17;28.90;;;1.70;99.90;;;;;;5029942;28;20529;-52
2021/12/05 22:47:57;;;;;;;60.27;27.53;;;1.70;99.90;;;;;;5030106;28;20245;-52
2021/12/05 22:50:23;;;;;;;63.53;29.03;;;1.70;99.90;;;;;;5029938;28;20445;-53
2021/12/05 22:52:50;;;;;;;60.90;27.73;;;1.70;99.90;;;;;;5029326;28;20452;-53
2021/12/05 22:55:17;;;;;;;69.13;28.90;;;1.60;99.90;;;;;;5029802;28;20489;-52
2021/12/05 22:57:43;;;;;;;61.40;26.80;;;1.70;99.90;;;;;;5030141;28;20426;-52
2021/12/05 23:00:38;;;;;;;68.50;28.03;;;1.70;99.90;;;;;;5029525;28;20508;-51
2021/12/05 23:03:38;;;;;;;67.90;27.60;;;1.70;99.90;;;;;;5030043;28;20265;-52
2021/12/05 23:06:05;;;;;;;60.73;26.77;;;1.70;99.90;;;;;;5027143;28;20536;-52
2021/12/05 23:08:32;;;;;;;59.03;26.87;;;1.60;99.90;;;;;;5033558;28;20438;-52
2021/12/05 23:10:58;;;;;;;67.07;27.00;;;1.70;99.90;;;;;;5033645;28;20938;-52
2021/12/05 23:13:25;;;;;;;59.87;26.63;;;1.60;99.90;;;;;;5033655;28;20938;-52
2021/12/05 23:15:51;;;;;;;62.83;28.00;;;1.70;99.90;;;;;;5033624;28;20473;-50
2021/12/05 23:18:17;;;;;;;58.73;25.97;;;1.60;99.90;;;;;;5033746;28;20846;-52
2021/12/05 23:20:43;;;;;;;58.93;26.27;;;1.60;99.90;;;;;;5033690;28;20672;-52
2021/12/05 23:23:09;;;;;;;60.10;26.70;;;1.60;99.90;;;;;;5033149;28;20421;-53
2021/12/05 23:25:35;;;;;;;67.27;27.30;;;1.70;99.90;;;;;;5033659;28;20430;-51
2021/12/05 23:28:00;;;;;;;66.77;26.33;;;1.70;99.90;;;;;;5033585;28;20191;-52
2021/12/05 23:30:30;;;;;;;63.77;27.10;;;1.60;99.90;;;;;;5032944;28;20206;-49
2021/12/05 23:32:57;;;;;;;65.23;28.00;;;1.60;99.90;;;;;;5033733;28;20245;-53
2021/12/05 23:35:23;;;;;;;63.17;26.87;;;1.60;99.90;;;;;;5033302;28;20888;-52
2021/12/05 23:37:52;;;;;;;66.67;28.53;;;1.60;99.90;;;;;;5033159;28;20483;-53
2021/12/05 23:40:19;;;;;;;63.13;26.07;;;1.60;99.90;;;;;;5033513;28;20811;-52
2021/12/05 23:42:45;;;;;;;56.37;26.00;;;1.60;99.90;;;;;;5033297;28;20425;-52
2021/12/05 23:45:11;;;;;;;63.13;27.10;;;1.60;99.90;;;;;;5033291;28;20927;-52
2021/12/05 23:47:38;;;;;;;62.67;26.00;;;1.60;99.90;;;;;;5033075;28;20195;-57
2021/12/05 23:50:07;;;;;;;63.47;27.30;;;1.60;99.90;;;;;;5032953;28;20434;-51
2021/12/05 23:52:36;;;;;;;61.80;26.33;;;1.60;99.90;;;;;;5032472;28;20495;-52
2021/12/05 23:55:09;;;;;;;60.67;26.60;;;1.70;99.90;;;;;;5033012;28;20519;-53
2021/12/05 23:57:35;;;;;;;61.63;26.27;;;1.70;99.90;;;;;;5033068;28;20433;-52
